Time,TemperatureF,DewpointF,PressureIn,WindDirection,WindDirectionDegrees,WindSpeedMPH,WindSpeedGustMPH,Humidity,HourlyPrecipIn,Conditions,Clouds,dailyrainin,SolarRadiationWatts/m^2,SoftwareType,DateUTC
2013-07-23 00:10:00,72.9,65.0,29.82,ENE,63,5.0,-999.0,75,-99.99,,,0.00,0,weatherlink.com 1.10,2013-07-23 05:10:00,
2013-07-23 00:25:00,72.3,64.0,29.82,NE,53,6.0,-999.0,75,-99.99,,,0.00,0,weatherlink.com 1.10,2013-07-23 05:25:00,
2013-07-23 00:40:00,72.1,63.0,29.82,East,84,3.0,-999.0,74,-99.99,,,0.00,0,weatherlink.com 1.10,2013-07-23 05:40:00,
2013-07-23 00:55:00,72.1,63.0,29.83,ENE,71,4.0,-999.0,73,-99.99,,,0.00,0,weatherlink.com 1.10,2013-07-23 05:55:00,
2013-07-23 01:10:00,72.2,63.0,29.83,ENE,64,3.0,-999.0,72,-99.99,,,0.00,0,weatherlink.com 1.10,2013-07-23 06:10:00,
2013-07-23 01:25:00,72.1,63.0,29.83,ENE,63,3.0,-999.0,72,-99.99,,,0.00,0,weatherlink.com 1.10,2013-07-23 06:25:00,
2013-07-23 01:40:00,71.7,63.0,29.83,ENE,73,2.0,-999.0,74,-99.99,,,0.00,0,weatherlink.com 1.10,2013-07-23 06:40:00,
2013-07-23 01:55:00,71.1,63.0,29.83,East,82,2.0,-999.0,76,-99.99,,,0.00,0,weatherlink.com 1.10,2013-07-23 06:55:00,
2013-07-23 02:10:00,70.3,63.0,29.83,East,87,2.0,-999.0,78,-99.99,,,0.00,0,weatherlink.com 1.10,2013-07-23 07:10:00,
2013-07-23 02:25:00,69.6,62.0,29.84,East,87,1.0,-999.0,78,-99.99,,,0.00,0,weatherlink.com 1.10,2013-07-23 07:25:00,
2013-07-23 02:40:00,68.9,62.0,29.83,ENE,76,2.0,-999.0,79,-99.99,,,0.00,0,weatherlink.com 1.10,2013-07-23 07:40:00,
2013-07-23 02:55:00,68.4,62.0,29.82,NE,55,2.0,-999.0,80,-99.99,,,0.00,0,weatherlink.com 1.10,2013-07-23 07:55:00,
2013-07-23 03:10:00,68.1,62.0,29.83,ENE,60,1.0,-999.0,80,-99.99,,,0.00,0,weatherlink.com 1.10,2013-07-23 08:10:00,
2013-07-23 03:24:00,68.0,62.0,29.82,NNE,24,0.0,-999.0,81,-99.99,,,0.00,0,weatherlink.com 1.10,2013-07-23 08:24:00,
2013-07-23 03:39:00,67.8,62.0,29.82,NE,36,1.0,-999.0,82,-99.99,,,0.00,0,weatherlink.com 1.10,2013-07-23 08:39:00,
2013-07-23 03:55:00,67.5,62.0,29.82,NNE,15,2.0,-999.0,83,-99.99,,,0.00,0,weatherlink.com 1.10,2013-07-23 08:55:00,
2013-07-23 04:10:00,67.3,62.0,29.82,NNE,15,2.0,-999.0,83,-99.99,,,0.00,0,weatherlink.com 1.10,2013-07-23 09:10:00,
2013-07-23 04:25:00,67.2,62.0,29.82,NW,324,1.0,-999.0,84,-99.99,,,0.00,0,weatherlink.com 1.10,2013-07-23 09:25:00,
2013-07-23 04:40:00,66.9,62.0,29.83,NNW,342,1.0,-999.0,85,-99.99,,,0.00,0,weatherlink.com 1.10,2013-07-23 09:40:00,
2013-07-23 04:55:00,66.8,62.0,29.83,NE,36,3.0,-999.0,85,-99.99,,,0.00,0,weatherlink.com 1.10,2013-07-23 09:55:00,
2013-07-23 05:10:00,66.8,63.0,29.90,NW,315,7.0,-999.0,86,-99.99,,,0.00,0,weatherlink.com 1.10,2013-07-23 10:10:00,
2013-07-23 05:25:00,67.6,63.0,29.92,NNW,331,13.0,-999.0,85,-99.99,,,0.00,0,weatherlink.com 1.10,2013-07-23 10:25:00,
2013-07-23 05:40:00,68.6,63.0,29.95,NW,304,11.0,-999.0,83,-99.99,,,0.00,0,weatherlink.com 1.10,2013-07-23 10:40:00,
2013-07-23 05:55:00,67.2,63.0,29.96,NNW,330,12.0,-999.0,85,-99.99,,,0.02,0,weatherlink.com 1.10,2013-07-23 10:55:00,
2013-07-23 06:10:00,65.4,62.0,29.93,NNE,25,8.0,-999.0,88,-99.99,,,0.04,0,weatherlink.com 1.10,2013-07-23 11:10:00,
2013-07-23 06:19:00,-999.0,-99.9,29.93,North,-999,-999.0,-999.0,-999,-99.99,,,0.00,,weatherlink.com 1.10,2013-07-23 11:19:00,
2013-07-23 06:34:00,65.2,63.0,29.92,NNW,344,5.0,-999.0,92,-99.99,,,0.01,0,weatherlink.com 1.10,2013-07-23 11:34:00,
2013-07-23 06:49:00,65.4,63.0,29.95,ENE,61,4.0,-999.0,92,-99.99,,,0.04,0,weatherlink.com 1.10,2013-07-23 11:49:00,
2013-07-23 07:04:00,65.2,63.0,29.94,NNE,33,4.0,-999.0,93,-99.99,,,0.09,0,weatherlink.com 1.10,2013-07-23 12:04:00,
2013-07-23 07:19:00,65.0,63.0,29.90,NE,51,7.0,-999.0,93,-99.99,,,0.13,9,weatherlink.com 1.10,2013-07-23 12:19:00,
2013-07-23 07:34:00,64.9,63.0,29.88,ENE,74,4.0,-999.0,93,-99.99,,,0.14,25,weatherlink.com 1.10,2013-07-23 12:34:00,
2013-07-23 07:49:00,64.9,63.0,29.87,NNE,15,4.0,-999.0,94,-99.99,,,0.14,23,weatherlink.com 1.10,2013-07-23 12:49:00,
2013-07-23 08:04:00,65.0,63.0,29.86,NE,44,5.0,-999.0,94,-99.99,,,0.14,98,weatherlink.com 1.10,2013-07-23 13:04:00,
2013-07-23 08:19:00,65.4,64.0,29.87,ESE,105,6.0,-999.0,94,-99.99,,,0.14,56,weatherlink.com 1.10,2013-07-23 13:19:00,
2013-07-23 08:34:00,65.5,64.0,29.84,ESE,113,7.0,-999.0,94,-99.99,,,0.14,23,weatherlink.com 1.10,2013-07-23 13:34:00,
2013-07-23 08:49:00,65.3,64.0,29.85,ENE,71,10.0,-999.0,94,-99.99,,,0.14,60,weatherlink.com 1.10,2013-07-23 13:49:00,
2013-07-23 09:04:00,65.3,64.0,29.85,SE,139,8.0,-999.0,94,-99.99,,,0.14,135,weatherlink.com 1.10,2013-07-23 14:04:00,
2013-07-23 09:19:00,66.2,65.0,29.86,ESE,108,6.0,-999.0,95,-99.99,,,0.14,165,weatherlink.com 1.10,2013-07-23 14:19:00,
2013-07-23 09:34:00,65.9,64.0,29.85,SE,141,7.0,-999.0,94,-99.99,,,0.14,125,weatherlink.com 1.10,2013-07-23 14:34:00,
2013-07-23 09:49:00,66.2,65.0,29.86,SSE,168,2.0,-999.0,94,-99.99,,,0.14,216,weatherlink.com 1.10,2013-07-23 14:49:00,
2013-07-23 10:04:00,66.8,65.0,29.87,SW,235,3.0,-999.0,93,-99.99,,,0.14,234,weatherlink.com 1.10,2013-07-23 15:04:00,
2013-07-23 10:19:00,67.3,65.0,29.88,South,170,4.0,-999.0,93,-99.99,,,0.14,216,weatherlink.com 1.10,2013-07-23 15:19:00,
2013-07-23 10:34:00,68.0,66.0,29.89,WSW,245,2.0,-999.0,92,-99.99,,,0.14,373,weatherlink.com 1.10,2013-07-23 15:34:00,
2013-07-23 10:49:00,68.6,66.0,29.90,WNW,292,5.0,-999.0,90,-99.99,,,0.14,454,weatherlink.com 1.10,2013-07-23 15:49:00,
2013-07-23 11:05:00,70.2,66.0,29.91,ENE,63,2.0,-999.0,86,-99.99,,,0.14,345,weatherlink.com 1.10,2013-07-23 16:05:00,
2013-07-23 11:20:00,70.9,65.0,29.91,NNE,14,1.0,-999.0,82,-99.99,,,0.14,371,weatherlink.com 1.10,2013-07-23 16:20:00,
2013-07-23 11:35:00,71.5,65.0,29.90,East,99,2.0,-999.0,81,-99.99,,,0.14,482,weatherlink.com 1.10,2013-07-23 16:35:00,
2013-07-23 11:50:00,73.5,68.0,29.90,NE,40,1.0,-999.0,82,-99.99,,,0.14,953,weatherlink.com 1.10,2013-07-23 16:50:00,
2013-07-23 12:05:00,75.3,69.0,29.91,NNE,15,1.0,-999.0,80,-99.99,,,0.14,1011,weatherlink.com 1.10,2013-07-23 17:05:00,
2013-07-23 12:20:00,76.6,68.0,29.92,NNE,23,2.0,-999.0,74,-99.99,,,0.14,914,weatherlink.com 1.10,2013-07-23 17:20:00,
2013-07-23 12:35:00,77.7,69.0,29.92,NNE,21,2.0,-999.0,74,-99.99,,,0.14,519,weatherlink.com 1.10,2013-07-23 17:35:00,
2013-07-23 12:50:00,77.9,69.0,29.90,ESE,105,1.0,-999.0,73,-99.99,,,0.14,519,weatherlink.com 1.10,2013-07-23 17:50:00,
2013-07-23 13:20:00,76.1,69.0,29.87,ESE,103,7.0,-999.0,78,-99.99,,,0.14,457,weatherlink.com 1.10,2013-07-23 18:20:00,
2013-07-23 13:35:00,75.9,69.0,29.87,East,89,6.0,-999.0,80,-99.99,,,0.14,483,weatherlink.com 1.10,2013-07-23 18:35:00,
2013-07-23 13:50:00,76.5,70.0,29.86,ESE,115,8.0,-999.0,80,-99.99,,,0.14,555,weatherlink.com 1.10,2013-07-23 18:50:00,
2013-07-23 14:20:00,74.5,69.0,29.90,ENE,57,2.0,-999.0,82,-99.99,,,0.15,541,weatherlink.com 1.10,2013-07-23 19:20:00,
2013-07-23 14:35:00,74.8,70.0,29.92,North,10,5.0,-999.0,84,-99.99,,,0.15,679,weatherlink.com 1.10,2013-07-23 19:35:00,
2013-07-23 14:50:00,75.7,68.0,29.92,NNE,30,6.0,-999.0,78,-99.99,,,0.15,439,weatherlink.com 1.10,2013-07-23 19:50:00,
2013-07-23 15:05:00,75.8,68.0,29.93,NE,37,4.0,-999.0,77,-99.99,,,0.15,659,weatherlink.com 1.10,2013-07-23 20:05:00,
2013-07-23 15:20:00,76.5,68.0,29.93,East,98,6.0,-999.0,75,-99.99,,,0.15,380,weatherlink.com 1.10,2013-07-23 20:20:00,
2013-07-23 15:35:00,76.9,69.0,29.92,East,88,6.0,-999.0,77,-99.99,,,0.15,844,weatherlink.com 1.10,2013-07-23 20:35:00,
2013-07-23 15:50:00,77.9,69.0,29.92,ENE,66,6.0,-999.0,73,-99.99,,,0.15,759,weatherlink.com 1.10,2013-07-23 20:50:00,
2013-07-23 16:05:00,79.0,70.0,29.92,ENE,67,5.0,-999.0,73,-99.99,,,0.15,824,weatherlink.com 1.10,2013-07-23 21:05:00,
2013-07-23 16:20:00,78.4,69.0,29.92,NE,50,5.0,-999.0,72,-99.99,,,0.15,243,weatherlink.com 1.10,2013-07-23 21:20:00,
2013-07-23 16:36:00,77.5,68.0,29.92,NE,38,2.0,-999.0,73,-99.99,,,0.15,288,weatherlink.com 1.10,2013-07-23 21:36:00,
2013-07-23 16:51:00,78.3,69.0,29.92,NE,35,4.0,-999.0,73,-99.99,,,0.15,782,weatherlink.com 1.10,2013-07-23 21:51:00,
2013-07-23 17:06:00,79.6,69.0,29.92,NE,44,4.0,-999.0,69,-99.99,,,0.15,661,weatherlink.com 1.10,2013-07-23 22:06:00,
2013-07-23 17:21:00,79.9,69.0,29.92,East,88,6.0,-999.0,70,-99.99,,,0.15,538,weatherlink.com 1.10,2013-07-23 22:21:00,
2013-07-23 17:51:00,79.6,67.0,29.92,ENE,65,3.0,-999.0,66,-99.99,,,0.15,179,weatherlink.com 1.10,2013-07-23 22:51:00,
2013-07-23 18:06:00,79.3,68.0,29.92,East,92,6.0,-999.0,68,-99.99,,,0.15,341,weatherlink.com 1.10,2013-07-23 23:06:00,
2013-07-23 18:21:00,79.5,68.0,29.91,NNE,32,4.0,-999.0,67,-99.99,,,0.15,313,weatherlink.com 1.10,2013-07-23 23:21:00,
2013-07-23 18:36:00,79.3,68.0,29.91,NE,40,4.0,-999.0,68,-99.99,,,0.15,316,weatherlink.com 1.10,2013-07-23 23:36:00,
2013-07-23 19:06:00,79.1,67.0,29.91,NE,50,2.0,-999.0,67,-99.99,,,0.15,188,weatherlink.com 1.10,2013-07-24 00:06:00,
2013-07-23 19:21:00,79.1,68.0,29.91,ENE,63,3.0,-999.0,68,-99.99,,,0.15,139,weatherlink.com 1.10,2013-07-24 00:21:00,
2013-07-23 19:51:00,79.1,68.0,29.91,NNE,19,1.0,-999.0,69,-99.99,,,0.15,90,weatherlink.com 1.10,2013-07-24 00:51:00,
2013-07-23 20:06:00,78.8,68.0,29.92,NNE,19,2.0,-999.0,69,-99.99,,,0.15,67,weatherlink.com 1.10,2013-07-24 01:06:00,
2013-07-23 20:51:00,75.6,66.0,29.92,ENE,61,1.0,-999.0,73,-99.99,,,0.15,0,weatherlink.com 1.10,2013-07-24 01:51:00,
2013-07-23 21:06:00,74.2,66.0,29.93,NNE,15,1.0,-999.0,75,-99.99,,,0.15,0,weatherlink.com 1.10,2013-07-24 02:06:00,
2013-07-23 21:36:00,71.8,65.0,29.94,NNE,28,0.0,-999.0,80,-99.99,,,0.15,0,weatherlink.com 1.10,2013-07-24 02:36:00,
2013-07-23 22:06:00,69.9,65.0,29.95,NNE,32,0.0,-999.0,83,-99.99,,,0.15,0,weatherlink.com 1.10,2013-07-24 03:06:00,
2013-07-23 22:21:00,69.1,64.0,29.95,NNE,28,1.0,-999.0,84,-99.99,,,0.15,0,weatherlink.com 1.10,2013-07-24 03:21:00,
2013-07-23 22:36:00,68.3,64.0,29.95,NE,51,1.0,-999.0,85,-99.99,,,0.15,0,weatherlink.com 1.10,2013-07-24 03:36:00,
2013-07-23 22:51:00,67.7,63.0,29.96,NNW,347,1.0,-999.0,85,-99.99,,,0.15,0,weatherlink.com 1.10,2013-07-24 03:51:00,
2013-07-23 23:06:00,67.1,63.0,29.96,North,5,3.0,-999.0,87,-99.99,,,0.15,0,weatherlink.com 1.10,2013-07-24 04:06:00,
2013-07-23 23:21:00,66.8,63.0,29.96,NNE,26,2.0,-999.0,88,-99.99,,,0.15,0,weatherlink.com 1.10,2013-07-24 04:21:00,
2013-07-23 23:36:00,66.4,63.0,29.97,ENE,71,3.0,-999.0,88,-99.99,,,0.15,0,weatherlink.com 1.10,2013-07-24 04:36:00,
2013-07-23 23:51:00,66.1,63.0,29.97,ENE,74,2.0,-999.0,89,-99.99,,,0.15,0,weatherlink.com 1.10,2013-07-24 04:51:00,